Time;durP1;ratioP1;P1;durP2;ratioP2;P2;SDS_P1;SDS_P2;PMS_P1;PMS_P2;Temp;Humidity;BMP_temperature;BMP_pressure;BME280_temperature;BME280_humidity;BME280_pressure;Samples;Min_cycle;Max_cycle;Signal;HPM_P1;HPM_P2
2023/08/16 00:02:11;;;;;;;12.95;9.77;;;25.10;76.10;;;;;;4982269;28;20500;-51
2023/08/16 00:04:37;;;;;;;10.93;9.32;;;25.10;76.10;;;;;;4981062;28;20146;-51
2023/08/16 00:07:03;;;;;;;11.68;9.90;;;25.10;76.20;;;;;;4982954;28;20034;-51
2023/08/16 00:09:28;;;;;;;10.45;9.35;;;25.10;76.20;;;;;;4980610;28;20589;-51
2023/08/16 00:11:54;;;;;;;9.43;8.43;;;25.10;76.20;;;;;;4981510;28;20561;-50
2023/08/16 00:14:20;;;;;;;10.25;9.25;;;25.10;76.10;;;;;;4972454;28;20042;-53
2023/08/16 00:16:45;;;;;;;10.48;9.40;;;25.10;76.00;;;;;;4980879;28;20539;-50
2023/08/16 00:19:11;;;;;;;8.48;7.70;;;25.10;76.10;;;;;;4982402;28;20041;-51
2023/08/16 00:21:36;;;;;;;9.07;7.68;;;25.10;76.10;;;;;;4981471;28;20482;-51
2023/08/16 00:24:04;;;;;;;8.60;7.70;;;25.10;76.10;;;;;;4981809;28;20049;-51
2023/08/16 00:26:30;;;;;;;8.15;7.32;;;25.10;76.20;;;;;;4980862;28;20057;-50
2023/08/16 00:28:56;;;;;;;10.25;8.73;;;25.10;76.30;;;;;;4982043;28;20508;-51
2023/08/16 00:31:22;;;;;;;7.90;7.10;;;25.00;76.20;;;;;;4981092;28;20053;-51
2023/08/16 00:33:48;;;;;;;7.22;6.53;;;25.00;76.30;;;;;;4979821;28;20057;-51
2023/08/16 00:36:13;;;;;;;9.25;7.40;;;25.10;76.30;;;;;;4979527;28;20026;-51
2023/08/16 00:38:42;;;;;;;8.02;7.18;;;25.00;76.30;;;;;;4980605;28;20106;-51
2023/08/16 00:41:12;;;;;;;9.10;6.03;;;25.00;77.00;;;;;;4980433;28;20032;-52
2023/08/16 00:43:37;;;;;;;7.72;6.93;;;25.00;76.40;;;;;;4980070;28;20034;-52
2023/08/16 00:46:06;;;;;;;8.57;6.53;;;25.00;76.40;;;;;;4980992;28;20022;-51
2023/08/16 00:48:33;;;;;;;8.77;7.28;;;25.00;76.30;;;;;;4980637;28;20034;-50
2023/08/16 00:50:59;;;;;;;8.25;7.45;;;25.00;76.30;;;;;;4979753;28;20043;-52
2023/08/16 00:53:28;;;;;;;10.63;8.07;;;25.00;76.30;;;;;;4981902;28;20043;-50
2023/08/16 00:55:54;;;;;;;8.75;7.85;;;25.00;76.20;;;;;;4979918;28;20409;-51
2023/08/16 00:58:20;;;;;;;8.45;7.55;;;25.00;76.30;;;;;;4980159;28;20092;-51
2023/08/16 01:00:45;;;;;;;7.68;6.95;;;25.00;76.30;;;;;;4978923;28;20065;-52
2023/08/16 01:03:11;;;;;;;8.07;7.28;;;25.00;76.30;;;;;;4981819;28;20644;-53
2023/08/16 01:05:37;;;;;;;9.77;7.63;;;25.00;76.30;;;;;;4981376;28;20546;-50
2023/08/16 01:08:03;;;;;;;8.98;8.05;;;25.00;76.40;;;;;;4989306;23;20054;-55
2023/08/16 01:10:51;;;;;;;9.55;8.48;;;25.00;76.40;;;;;;4974592;28;20070;-53
2023/08/16 01:13:27;;;;;;;12.50;9.27;;;24.90;76.30;;;;;;4960818;28;20026;-51
2023/08/16 01:15:55;;;;;;;8.75;7.95;;;25.00;76.40;;;;;;4966097;28;20065;-49
2023/08/16 01:18:23;;;;;;;10.40;8.93;;;25.00;76.30;;;;;;4965684;28;20397;-50
2023/08/16 01:20:51;;;;;;;9.98;8.82;;;25.00;76.50;;;;;;4966234;28;20038;-49
2023/08/16 01:23:31;;;;;;;10.23;9.23;;;24.90;76.40;;;;;;4966263;28;20027;-50
2023/08/16 01:26:21;;;;;;;11.52;10.35;;;25.00;76.40;;;;;;4967901;28;20049;-50
2023/08/16 01:28:48;;;;;;;10.48;9.48;;;24.90;76.40;;;;;;4965386;28;20035;-51
2023/08/16 01:31:14;;;;;;;11.07;9.98;;;25.00;76.50;;;;;;4968350;28;20171;-53
2023/08/16 01:33:39;;;;;;;10.43;9.43;;;24.90;76.40;;;;;;4970888;28;20416;-50
2023/08/16 01:36:05;;;;;;;8.80;7.90;;;25.00;76.20;;;;;;4971857;28;20034;-53
2023/08/16 01:38:31;;;;;;;9.65;8.00;;;25.10;75.90;;;;;;4968372;28;20417;-53
2023/08/16 01:41:13;;;;;;;9.02;8.15;;;25.10;75.60;;;;;;4968839;28;20053;-49
2023/08/16 01:43:41;;;;;;;8.45;7.72;;;25.10;75.40;;;;;;4966699;28;20085;-53
2023/08/16 01:46:08;;;;;;;8.98;8.18;;;25.20;75.40;;;;;;4963911;28;20062;-50
2023/08/16 01:48:34;;;;;;;9.85;8.98;;;25.10;75.20;;;;;;4963113;28;20038;-51
2023/08/16 01:51:00;;;;;;;9.00;8.07;;;25.20;75.30;;;;;;4967558;28;20097;-50
2023/08/16 01:53:25;;;;;;;9.27;8.38;;;25.20;75.10;;;;;;4970583;28;20065;-51
2023/08/16 01:55:51;;;;;;;9.68;8.77;;;25.20;74.90;;;;;;4970810;28;20031;-50
2023/08/16 01:58:16;;;;;;;10.13;8.73;;;25.20;74.90;;;;;;4972611;28;20038;-51
2023/08/16 02:00:42;;;;;;;9.63;8.63;;;25.20;74.80;;;;;;4972562;28;20514;-49
2023/08/16 02:03:07;;;;;;;9.50;8.63;;;25.20;74.90;;;;;;4975126;28;20122;-53
2023/08/16 02:05:33;;;;;;;10.85;9.73;;;25.20;74.80;;;;;;4973516;28;20062;-53
2023/08/16 02:07:58;;;;;;;10.27;8.40;;;25.20;74.80;;;;;;4975422;28;20401;-53
2023/08/16 02:10:24;;;;;;;9.52;8.65;;;25.30;74.90;;;;;;4971362;28;20487;-52
2023/08/16 02:12:50;;;;;;;10.18;9.18;;;25.20;74.70;;;;;;4973363;28;20516;-50
2023/08/16 02:15:15;;;;;;;9.38;8.52;;;25.20;74.80;;;;;;4970560;28;20031;-50
2023/08/16 02:17:41;;;;;;;10.43;9.43;;;25.20;74.70;;;;;;4975313;28;20046;-54
2023/08/16 02:20:08;;;;;;;10.10;9.10;;;25.20;74.60;;;;;;4968857;28;20481;-54
2023/08/16 02:22:34;;;;;;;10.32;9.00;;;25.20;74.60;;;;;;4968408;28;20112;-51
2023/08/16 02:24:59;;;;;;;11.38;9.75;;;25.20;74.60;;;;;;4969756;28;20520;-53
2023/08/16 02:27:25;;;;;;;11.27;10.18;;;25.20;74.50;;;;;;4973520;28;20034;-50
2023/08/16 02:29:51;;;;;;;10.50;9.50;;;25.20;74.60;;;;;;4971070;28;20690;-54
2023/08/16 02:32:17;;;;;;;10.75;9.65;;;25.20;74.50;;;;;;4960993;28;20039;-51
2023/08/16 02:34:43;;;;;;;9.88;8.88;;;25.20;74.50;;;;;;4966440;28;20031;-51
2023/08/16 02:37:08;;;;;;;11.43;10.02;;;25.20;74.60;;;;;;4972076;28;20031;-52
2023/08/16 02:39:34;;;;;;;10.68;9.57;;;25.20;74.40;;;;;;4972489;28;20027;-55
2023/08/16 02:41:59;;;;;;;10.38;9.35;;;25.20;74.50;;;;;;4966379;28;20031;-53
2023/08/16 02:44:25;;;;;;;10.02;9.05;;;25.20;74.30;;;;;;4970710;28;20042;-51
2023/08/16 02:46:50;;;;;;;11.65;10.45;;;25.20;74.40;;;;;;4972261;28;20038;-51
2023/08/16 02:49:16;;;;;;;10.27;9.27;;;25.20;74.40;;;;;;4967634;28;20027;-51
2023/08/16 02:51:41;;;;;;;11.85;10.73;;;25.20;74.40;;;;;;4958333;28;20400;-52
2023/08/16 02:54:07;;;;;;;11.82;10.68;;;25.20;74.10;;;;;;4965860;28;20026;-51
2023/08/16 02:56:32;;;;;;;17.48;11.63;;;25.20;74.40;;;;;;4964556;28;20034;-54
2023/08/16 02:58:58;;;;;;;18.17;16.20;;;25.10;74.50;;;;;;4971927;28;20026;-52
2023/08/16 03:01:24;;;;;;;16.45;13.95;;;25.00;74.40;;;;;;4965328;28;21169;-51
2023/08/16 03:03:49;;;;;;;16.08;14.10;;;24.70;75.40;;;;;;4970789;28;20042;-53
2023/08/16 03:06:15;;;;;;;14.00;12.63;;;24.70;75.50;;;;;;4965956;28;20023;-51
2023/08/16 03:08:40;;;;;;;13.18;11.88;;;24.70;75.60;;;;;;4968888;28;20129;-52
2023/08/16 03:11:06;;;;;;;15.68;13.35;;;24.80;75.30;;;;;;4964299;28;20069;-50
2023/08/16 03:13:32;;;;;;;15.48;13.38;;;24.70;75.40;;;;;;4968155;28;20034;-52
2023/08/16 03:15:57;;;;;;;15.15;13.55;;;24.50;76.00;;;;;;4964775;28;20022;-51
2023/08/16 03:18:23;;;;;;;13.63;12.20;;;24.50;76.10;;;;;;4968488;28;20054;-53
2023/08/16 03:20:48;;;;;;;16.67;13.23;;;24.40;76.30;;;;;;4962365;28;20548;-54
2023/08/16 03:23:14;;;;;;;15.18;10.63;;;24.50;76.10;;;;;;4958877;28;20031;-48
2023/08/16 03:25:40;;;;;;;13.55;11.98;;;24.50;75.80;;;;;;4950457;28;20028;-49
2023/08/16 03:28:06;;;;;;;12.02;9.45;;;24.70;75.60;;;;;;4973343;28;20022;-50
2023/08/16 03:30:31;;;;;;;8.38;7.57;;;24.70;75.40;;;;;;4966411;28;20033;-58
2023/08/16 03:32:57;;;;;;;7.75;7.00;;;24.80;75.40;;;;;;4963925;28;20037;-56
2023/08/16 03:35:22;;;;;;;10.68;9.57;;;24.80;75.10;;;;;;4969184;28;20436;-53
2023/08/16 03:37:48;;;;;;;8.43;7.32;;;24.90;74.70;;;;;;4968725;28;20599;-50
2023/08/16 03:40:14;;;;;;;7.90;6.70;;;24.90;74.70;;;;;;4970339;28;20165;-51
2023/08/16 03:42:40;;;;;;;9.95;9.05;;;24.90;74.70;;;;;;4970910;28;20036;-49
2023/08/16 03:45:06;;;;;;;8.43;7.55;;;25.00;74.50;;;;;;4970198;28;20363;-55
2023/08/16 03:47:32;;;;;;;8.30;7.45;;;24.90;74.50;;;;;;4968190;28;20027;-54
2023/08/16 03:49:59;;;;;;;7.82;7.05;;;25.00;74.30;;;;;;4970220;28;20033;-52
2023/08/16 03:52:25;;;;;;;8.52;7.53;;;25.00;74.30;;;;;;4969217;28;20035;-51
2023/08/16 03:54:52;;;;;;;12.32;9.43;;;25.00;74.30;;;;;;4968100;28;20539;-56
2023/08/16 03:57:18;;;;;;;9.27;8.35;;;24.90;74.10;;;;;;4969677;28;20038;-55
2023/08/16 03:59:43;;;;;;;16.30;12.13;;;24.90;74.30;;;;;;4968690;28;20508;-54
2023/08/16 04:02:09;;;;;;;10.30;9.23;;;24.90;74.10;;;;;;4967164;28;20042;-49
2023/08/16 04:04:34;;;;;;;8.98;7.90;;;24.80;74.90;;;;;;4966159;28;20041;-50
2023/08/16 04:07:00;;;;;;;9.70;8.77;;;24.90;74.80;;;;;;4969082;28;20031;-58
2023/08/16 04:09:25;;;;;;;11.45;9.80;;;24.80;74.80;;;;;;4970718;28;20583;-55
2023/08/16 04:11:51;;;;;;;12.02;10.75;;;24.90;74.90;;;;;;4969149;28;20045;-49
2023/08/16 04:14:16;;;;;;;12.18;10.93;;;24.90;74.90;;;;;;4972812;28;20393;-50
2023/08/16 04:16:42;;;;;;;14.50;10.65;;;24.80;74.80;;;;;;4951913;28;20039;-52
2023/08/16 04:19:07;;;;;;;11.88;10.45;;;24.70;75.40;;;;;;4972189;28;20035;-53
2023/08/16 04:21:33;;;;;;;15.05;11.93;;;24.70;75.70;;;;;;4970909;28;20027;-51
2023/08/16 04:23:59;;;;;;;15.38;13.20;;;24.60;75.90;;;;;;4971292;28;20031;-53
2023/08/16 04:26:24;;;;;;;16.45;13.95;;;24.60;76.10;;;;;;4970878;28;20487;-52
2023/08/16 04:28:50;;;;;;;18.38;13.90;;;24.60;76.30;;;;;;4967422;28;20043;-52
2023/08/16 04:31:15;;;;;;;17.45;14.38;;;24.60;76.50;;;;;;4951786;28;20518;-49
2023/08/16 04:33:41;;;;;;;18.48;14.25;;;24.50;76.50;;;;;;4965932;28;20022;-56
2023/08/16 04:36:06;;;;;;;22.92;15.13;;;24.50;76.40;;;;;;4968404;28;20378;-56
2023/08/16 04:38:32;;;;;;;18.98;14.82;;;24.50;76.50;;;;;;4970581;28;20037;-50
2023/08/16 04:40:57;;;;;;;17.52;13.57;;;24.50;76.70;;;;;;4968872;28;20034;-50
2023/08/16 04:43:23;;;;;;;19.83;13.75;;;24.50;76.80;;;;;;4967421;28;20045;-57
2023/08/16 04:45:48;;;;;;;17.95;14.45;;;24.40;76.80;;;;;;4970473;28;20098;-49
2023/08/16 04:48:14;;;;;;;17.70;14.27;;;24.40;76.90;;;;;;4962900;28;20035;-56
2023/08/16 04:50:40;;;;;;;18.35;13.98;;;24.40;77.00;;;;;;4966446;28;20480;-53
2023/08/16 04:53:05;;;;;;;18.40;14.88;;;24.40;77.10;;;;;;4965079;28;20031;-56
2023/08/16 04:55:30;;;;;;;21.45;15.05;;;24.40;77.10;;;;;;4962742;28;20049;-51
2023/08/16 04:57:56;;;;;;;19.00;13.93;;;24.40;77.20;;;;;;4962646;28;20093;-53
2023/08/16 05:00:22;;;;;;;18.55;13.93;;;24.30;77.20;;;;;;4963112;28;20110;-52
2023/08/16 05:02:47;;;;;;;19.38;14.13;;;24.40;77.20;;;;;;4950414;28;20074;-56
2023/08/16 05:05:13;;;;;;;20.70;14.13;;;24.40;77.30;;;;;;4962581;28;20113;-50
2023/08/16 05:07:39;;;;;;;19.08;13.85;;;24.30;77.20;;;;;;4961969;28;20027;-52
2023/08/16 05:10:05;;;;;;;19.45;14.80;;;24.30;77.30;;;;;;4968133;28;20027;-50
2023/08/16 05:12:30;;;;;;;22.98;15.32;;;24.30;77.30;;;;;;4963883;28;20055;-50
2023/08/16 05:14:56;;;;;;;17.50;13.45;;;24.30;77.30;;;;;;4966912;28;20042;-55
2023/08/16 05:17:21;;;;;;;17.63;12.40;;;24.30;77.60;;;;;;4963274;28;20070;-49
2023/08/16 05:19:47;;;;;;;22.27;15.02;;;24.30;77.80;;;;;;4966571;28;20046;-56
2023/08/16 05:22:13;;;;;;;21.10;14.30;;;24.30;77.60;;;;;;4962456;28;20248;-53
2023/08/16 05:24:38;;;;;;;24.65;12.80;;;24.30;77.30;;;;;;4960868;28;20591;-56
2023/08/16 05:27:04;;;;;;;20.40;13.38;;;24.30;77.20;;;;;;4962409;28;20062;-57
2023/08/16 05:29:29;;;;;;;20.67;14.27;;;24.30;77.30;;;;;;4968409;28;20037;-49
2023/08/16 05:31:57;;;;;;;19.45;14.85;;;24.30;77.10;;;;;;4969076;28;20105;-50
2023/08/16 05:34:23;;;;;;;20.20;13.05;;;24.30;77.00;;;;;;4969394;28;20062;-51
2023/08/16 05:36:50;;;;;;;15.43;11.10;;;24.30;77.00;;;;;;4963521;28;20559;-56
2023/08/16 05:39:17;;;;;;;18.13;11.77;;;24.30;77.10;;;;;;4967421;28;20495;-51
2023/08/16 05:41:42;;;;;;;14.98;10.73;;;24.30;77.10;;;;;;4962541;28;20045;-58
2023/08/16 05:44:08;;;;;;;11.63;9.90;;;24.30;77.00;;;;;;4966137;28;20038;-52
2023/08/16 05:46:34;;;;;;;13.45;10.40;;;24.30;76.90;;;;;;4967761;28;20038;-55
2023/08/16 05:49:02;;;;;;;15.13;10.00;;;24.30;77.00;;;;;;4965603;28;20623;-52
2023/08/16 05:51:28;;;;;;;13.40;9.38;;;24.30;76.90;;;;;;4969866;28;20058;-51
2023/08/16 05:53:53;;;;;;;13.70;10.13;;;24.30;76.90;;;;;;4967271;28;20085;-51
2023/08/16 05:56:19;;;;;;;12.40;9.13;;;24.30;76.80;;;;;;4952063;28;20039;-51
2023/08/16 05:58:44;;;;;;;11.00;8.60;;;24.30;77.00;;;;;;4967445;28;20038;-56
2023/08/16 06:01:10;;;;;;;13.10;8.85;;;24.30;76.90;;;;;;4966601;28;20034;-50
2023/08/16 06:03:36;;;;;;;11.18;9.25;;;24.30;76.90;;;;;;4962291;28;20096;-55
2023/08/16 06:06:01;;;;;;;11.07;8.75;;;24.30;77.00;;;;;;4966792;28;20039;-54
2023/08/16 06:08:27;;;;;;;9.30;8.27;;;24.30;76.90;;;;;;4965213;28;20473;-52
2023/08/16 06:10:52;;;;;;;12.93;9.35;;;24.30;76.90;;;;;;4962231;28;20741;-49
2023/08/16 06:13:18;;;;;;;12.55;8.93;;;24.30;77.00;;;;;;4965415;28;20069;-54
2023/08/16 06:15:44;;;;;;;12.98;8.32;;;24.30;76.90;;;;;;4966325;28;20025;-57
2023/08/16 06:18:09;;;;;;;8.98;7.78;;;24.30;77.00;;;;;;4968859;28;20031;-56
2023/08/16 06:20:35;;;;;;;10.32;8.18;;;24.30;77.00;;;;;;4967759;28;20629;-52
2023/08/16 06:23:01;;;;;;;10.98;8.88;;;24.30;77.20;;;;;;4968679;28;20027;-52
2023/08/16 06:25:27;;;;;;;14.07;9.68;;;24.30;77.10;;;;;;4969269;28;20092;-55
2023/08/16 06:27:53;;;;;;;11.23;8.35;;;24.30;77.30;;;;;;4969012;28;20046;-51
2023/08/16 06:30:18;;;;;;;9.15;7.82;;;24.30;77.20;;;;;;4964749;28;20069;-50
2023/08/16 06:32:45;;;;;;;13.60;10.35;;;24.30;77.10;;;;;;4965175;28;20826;-57
2023/08/16 06:35:10;;;;;;;13.88;9.35;;;24.30;77.20;;;;;;4967471;28;20026;-58
2023/08/16 06:37:38;;;;;;;12.68;9.07;;;24.30;77.10;;;;;;4969812;28;20065;-49
2023/08/16 06:40:04;;;;;;;12.95;9.77;;;24.30;77.10;;;;;;4967151;28;20031;-50
2023/08/16 06:42:31;;;;;;;16.63;10.73;;;24.30;76.90;;;;;;4953276;28;20034;-49
2023/08/16 06:44:56;;;;;;;15.05;10.13;;;24.30;77.00;;;;;;4963181;28;20580;-49
2023/08/16 06:47:22;;;;;;;13.88;10.98;;;24.30;77.10;;;;;;4963879;28;20067;-50
2023/08/16 06:49:47;;;;;;;13.35;10.30;;;24.30;77.10;;;;;;4961611;28;20085;-52
2023/08/16 06:52:13;;;;;;;12.05;9.43;;;24.30;77.10;;;;;;4963848;28;20046;-52
2023/08/16 06:54:39;;;;;;;13.55;10.05;;;24.30;77.30;;;;;;4965030;28;20031;-53
2023/08/16 06:57:05;;;;;;;16.98;12.32;;;24.30;77.30;;;;;;4965727;28;20027;-54
2023/08/16 06:59:31;;;;;;;14.90;10.77;;;24.30;77.30;;;;;;4964432;28;20035;-52
2023/08/16 07:01:57;;;;;;;14.25;9.50;;;24.30;77.00;;;;;;4963619;28;20145;-58
2023/08/16 07:04:23;;;;;;;13.32;9.10;;;24.30;77.00;;;;;;4947308;28;20069;-55
2023/08/16 07:06:48;;;;;;;13.45;10.30;;;24.30;77.10;;;;;;4953938;28;20130;-48
2023/08/16 07:09:14;;;;;;;11.50;8.55;;;24.30;77.00;;;;;;4946217;28;20093;-50
2023/08/16 07:11:39;;;;;;;13.02;7.85;;;24.30;77.30;;;;;;4947185;28;20042;-55
2023/08/16 07:14:05;;;;;;;15.27;9.23;;;24.30;77.30;;;;;;4964267;28;20031;-52
2023/08/16 07:16:31;;;;;;;10.63;7.85;;;24.30;77.40;;;;;;4968707;28;20037;-50
2023/08/16 07:18:57;;;;;;;9.82;7.13;;;24.20;77.30;;;;;;4964870;28;20480;-52
2023/08/16 07:21:22;;;;;;;10.10;7.13;;;24.20;77.70;;;;;;4967999;28;20034;-48
2023/08/16 07:23:49;;;;;;;9.57;7.63;;;24.20;78.00;;;;;;4962093;28;20054;-53
2023/08/16 07:26:14;;;;;;;9.65;7.43;;;24.20;78.20;;;;;;4959920;28;20106;-48
2023/08/16 07:28:40;;;;;;;13.25;9.40;;;24.20;78.20;;;;;;4969081;28;20189;-54
2023/08/16 07:31:05;;;;;;;10.50;7.38;;;24.10;78.00;;;;;;4971845;28;20393;-56
2023/08/16 07:33:31;;;;;;;10.65;7.78;;;24.20;78.40;;;;;;4974274;28;20031;-47
2023/08/16 07:36:03;;;;;;;11.18;6.75;;;24.10;78.00;;;;;;4970218;28;20034;-53
2023/08/16 07:38:32;;;;;;;8.68;6.38;;;24.10;78.40;;;;;;4944948;28;21678;-51
2023/08/16 07:40:58;;;;;;;8.38;5.72;;;24.10;78.60;;;;;;4963002;28;20038;-48
2023/08/16 07:43:24;;;;;;;9.52;6.72;;;24.10;78.70;;;;;;4952265;28;20038;-52
2023/08/16 07:45:53;;;;;;;7.25;5.72;;;24.20;78.60;;;;;;4962883;28;20023;-49
2023/08/16 07:48:19;;;;;;;5.90;5.28;;;24.20;78.60;;;;;;4964848;28;20042;-53
2023/08/16 07:50:45;;;;;;;6.40;4.82;;;24.20;78.50;;;;;;4965976;28;20677;-52
2023/08/16 07:53:11;;;;;;;6.22;5.38;;;24.20;78.20;;;;;;4969866;28;20030;-52
2023/08/16 07:55:37;;;;;;;7.25;5.82;;;24.20;78.40;;;;;;4963701;28;20078;-52
2023/08/16 07:58:03;;;;;;;8.13;5.05;;;24.20;78.60;;;;;;4968281;28;20098;-56
2023/08/16 08:00:29;;;;;;;6.40;4.65;;;24.20;78.70;;;;;;4967000;28;20313;-54
2023/08/16 08:02:55;;;;;;;5.85;4.88;;;24.20;78.70;;;;;;4966442;28;20073;-53
2023/08/16 08:05:21;;;;;;;6.63;6.03;;;24.20;78.80;;;;;;4966485;28;20034;-55
2023/08/16 08:07:48;;;;;;;6.00;5.40;;;24.20;78.90;;;;;;4963473;28;20034;-55
2023/08/16 08:10:14;;;;;;;7.88;7.07;;;24.10;79.10;;;;;;4963610;28;20027;-54
2023/08/16 08:12:44;;;;;;;5.60;4.90;;;24.20;78.80;;;;;;4965412;28;20034;-56
2023/08/16 08:15:10;;;;;;;6.80;5.80;;;24.20;78.80;;;;;;4964890;28;20035;-55
2023/08/16 08:17:36;;;;;;;7.63;5.90;;;24.20;78.40;;;;;;4966391;28;20038;-57
2023/08/16 08:20:03;;;;;;;5.72;5.15;;;24.20;78.80;;;;;;4967222;28;20031;-58
2023/08/16 08:22:29;;;;;;;5.30;4.80;;;24.20;78.60;;;;;;4969520;28;20026;-53
2023/08/16 08:24:54;;;;;;;5.80;5.20;;;24.20;78.60;;;;;;4967340;28;20031;-49
2023/08/16 08:27:20;;;;;;;6.75;5.60;;;24.20;78.60;;;;;;4967624;28;20045;-57
2023/08/16 08:29:45;;;;;;;6.80;5.53;;;24.20;78.80;;;;;;4966813;28;20050;-50
2023/08/16 08:32:11;;;;;;;5.68;5.10;;;24.20;78.80;;;;;;4968242;28;20031;-50
2023/08/16 08:34:38;;;;;;;6.85;6.15;;;24.20;78.60;;;;;;4967290;28;20038;-52
2023/08/16 08:37:04;;;;;;;6.05;5.00;;;24.20;78.70;;;;;;4963084;28;20045;-48
2023/08/16 08:39:30;;;;;;;6.45;5.75;;;24.20;78.70;;;;;;4963843;28;20027;-50
2023/08/16 08:41:56;;;;;;;9.60;6.60;;;24.10;78.80;;;;;;4965279;28;20399;-49
2023/08/16 08:44:22;;;;;;;7.45;5.90;;;24.10;78.70;;;;;;4966337;28;20039;-51
2023/08/16 08:46:48;;;;;;;7.22;5.97;;;24.20;78.00;;;;;;4962491;28;20042;-50
2023/08/16 08:49:19;;;;;;;7.60;5.57;;;24.20;78.30;;;;;;4964927;28;20696;-48
2023/08/16 08:51:45;;;;;;;8.65;7.57;;;24.20;77.80;;;;;;4960494;28;20489;-55
2023/08/16 08:54:11;;;;;;;7.55;6.25;;;24.10;77.00;;;;;;4966097;28;20126;-47
2023/08/16 08:56:36;;;;;;;7.57;6.25;;;24.10;77.80;;;;;;4967231;28;20088;-48
2023/08/16 08:59:03;;;;;;;7.07;6.38;;;24.10;78.00;;;;;;4964150;28;20035;-52
2023/08/16 09:01:31;;;;;;;9.07;7.55;;;24.20;77.60;;;;;;4965252;28;20042;-57
2023/08/16 09:04:00;;;;;;;7.78;6.38;;;24.10;76.90;;;;;;4965716;28;20078;-52
2023/08/16 09:06:26;;;;;;;6.80;6.10;;;24.20;76.70;;;;;;4949164;28;20042;-52
2023/08/16 09:08:52;;;;;;;6.47;5.53;;;24.20;77.00;;;;;;4957935;28;20039;-51
2023/08/16 09:11:20;;;;;;;7.43;6.72;;;24.10;77.40;;;;;;4963894;28;20202;-48
2023/08/16 09:13:47;;;;;;;9.43;6.55;;;24.20;77.80;;;;;;4959616;28;20037;-54
2023/08/16 09:16:13;;;;;;;6.93;5.95;;;24.20;77.80;;;;;;4962851;28;20035;-50
2023/08/16 09:18:49;;;;;;;8.30;6.43;;;24.10;77.20;;;;;;4965540;28;20600;-50
2023/08/16 09:21:24;;;;;;;7.50;6.18;;;24.20;77.90;;;;;;4967458;28;20034;-54
2023/08/16 09:23:57;;;;;;;7.32;5.95;;;24.10;77.90;;;;;;4965692;28;20118;-51
2023/08/16 09:26:22;;;;;;;7.43;6.50;;;24.10;77.80;;;;;;4969376;28;20122;-49
2023/08/16 09:28:56;;;;;;;7.88;6.47;;;24.20;77.60;;;;;;4952518;28;20433;-53
2023/08/16 09:31:22;;;;;;;6.63;6.03;;;24.10;77.40;;;;;;4962177;28;20061;-57
2023/08/16 09:33:54;;;;;;;8.50;6.07;;;24.10;77.60;;;;;;4967571;28;20098;-53
2023/08/16 09:36:20;;;;;;;5.97;5.38;;;24.20;77.10;;;;;;4962663;28;20187;-55
2023/08/16 09:38:47;;;;;;;8.15;7.18;;;24.20;76.90;;;;;;4962846;28;20066;-48
2023/08/16 09:41:16;;;;;;;5.95;5.10;;;24.20;77.10;;;;;;4963613;28;20114;-56
2023/08/16 09:43:42;;;;;;;8.52;6.47;;;24.20;77.20;;;;;;4963737;28;20483;-53
2023/08/16 09:46:08;;;;;;;7.95;7.15;;;24.20;77.70;;;;;;4966111;28;20027;-49
2023/08/16 09:48:33;;;;;;;7.65;6.75;;;24.20;77.90;;;;;;4963724;28;20077;-49
2023/08/16 09:51:01;;;;;;;9.52;6.97;;;24.10;78.00;;;;;;4962500;28;20038;-51
2023/08/16 09:53:27;;;;;;;8.68;7.72;;;24.10;77.90;;;;;;4965464;28;20366;-57
2023/08/16 09:55:54;;;;;;;8.30;7.50;;;24.10;77.70;;;;;;4966095;28;20115;-56
2023/08/16 09:58:20;;;;;;;8.02;7.10;;;24.10;77.30;;;;;;4964219;28;20046;-55
2023/08/16 10:00:48;;;;;;;9.98;8.15;;;24.20;77.70;;;;;;4965063;28;20503;-49
2023/08/16 10:03:15;;;;;;;9.10;7.93;;;24.10;76.90;;;;;;4964119;28;20031;-55
2023/08/16 10:05:40;;;;;;;8.38;7.47;;;24.20;76.90;;;;;;4963813;28;20065;-50
2023/08/16 10:08:09;;;;;;;9.05;7.80;;;24.20;76.70;;;;;;4962769;28;20117;-49
2023/08/16 10:10:35;;;;;;;8.45;7.68;;;24.20;77.00;;;;;;4966641;28;20061;-50
2023/08/16 10:13:03;;;;;;;11.60;8.05;;;24.20;76.70;;;;;;4967236;28;20728;-51
2023/08/16 10:15:33;;;;;;;10.73;9.60;;;24.10;76.50;;;;;;4969901;28;20426;-57
2023/08/16 10:18:00;;;;;;;10.10;8.40;;;24.10;76.70;;;;;;4964671;28;20159;-50
2023/08/16 10:20:35;;;;;;;9.20;8.27;;;24.10;76.60;;;;;;4970074;28;20042;-51
2023/08/16 10:23:02;;;;;;;9.27;7.40;;;24.20;76.20;;;;;;4966894;28;20404;-50
2023/08/16 10:25:36;;;;;;;10.25;9.18;;;24.20;77.20;;;;;;4974747;28;20388;-59
2023/08/16 10:28:02;;;;;;;10.30;9.18;;;24.10;77.10;;;;;;4969428;28;20117;-63
2023/08/16 10:30:29;;;;;;;9.77;8.63;;;24.20;76.70;;;;;;4973703;28;20067;-55
2023/08/16 10:32:59;;;;;;;10.40;9.15;;;24.20;76.60;;;;;;4970923;28;20738;-48
2023/08/16 10:35:25;;;;;;;9.55;8.57;;;24.20;76.40;;;;;;4966306;28;20435;-52
2023/08/16 10:37:53;;;;;;;11.40;9.88;;;24.20;76.50;;;;;;4962666;28;20042;-49
2023/08/16 10:40:20;;;;;;;10.68;9.20;;;24.30;76.50;;;;;;4968286;28;20507;-51
2023/08/16 10:42:56;;;;;;;10.77;9.55;;;24.20;76.70;;;;;;4966992;28;20588;-57
2023/08/16 10:45:27;;;;;;;11.18;8.98;;;24.20;76.60;;;;;;4971199;28;20043;-53
2023/08/16 10:47:53;;;;;;;10.57;9.25;;;24.30;76.70;;;;;;4965697;28;20066;-52
2023/08/16 10:50:19;;;;;;;10.60;9.20;;;24.20;76.70;;;;;;4971655;28;20035;-50
2023/08/16 10:52:44;;;;;;;10.00;8.70;;;24.20;76.60;;;;;;4966439;28;20062;-57
2023/08/16 10:55:11;;;;;;;12.05;9.25;;;24.30;76.70;;;;;;4971891;28;20114;-56
2023/08/16 10:57:37;;;;;;;9.38;8.48;;;24.30;76.90;;;;;;4971649;28;20071;-54
2023/08/16 11:00:05;;;;;;;11.75;10.55;;;24.30;76.70;;;;;;4974212;28;20739;-56
2023/08/16 11:02:32;;;;;;;9.98;8.98;;;24.30;76.60;;;;;;4955380;28;20037;-53
2023/08/16 11:05:00;;;;;;;11.20;9.63;;;24.30;76.60;;;;;;4966796;28;20050;-51
2023/08/16 11:07:25;;;;;;;11.02;9.10;;;24.30;76.80;;;;;;4967143;28;20074;-50
2023/08/16 11:09:51;;;;;;;9.95;8.45;;;24.30;77.10;;;;;;4963465;28;20501;-54
2023/08/16 11:12:17;;;;;;;11.35;10.05;;;24.30;77.00;;;;;;4967221;28;20031;-57
2023/08/16 11:14:45;;;;;;;12.10;9.73;;;24.30;76.90;;;;;;4967893;28;20035;-51
2023/08/16 11:17:14;;;;;;;10.77;9.68;;;24.30;76.80;;;;;;4966682;28;20516;-56
2023/08/16 11:19:41;;;;;;;10.18;8.85;;;24.30;76.70;;;;;;4967064;28;20471;-50
2023/08/16 11:22:09;;;;;;;10.27;9.20;;;24.30;76.80;;;;;;4972141;28;20754;-49
2023/08/16 11:24:34;;;;;;;10.57;9.57;;;24.30;76.80;;;;;;4967233;28;20066;-54
2023/08/16 11:27:03;;;;;;;11.25;10.05;;;24.30;76.60;;;;;;4973515;28;20061;-50
2023/08/16 11:29:28;;;;;;;11.35;9.20;;;24.30;76.50;;;;;;4968205;28;20076;-58
2023/08/16 11:31:57;;;;;;;11.68;10.48;;;24.30;76.60;;;;;;4971960;28;20070;-54
2023/08/16 11:34:24;;;;;;;10.68;9.63;;;24.30;76.40;;;;;;4966388;28;20035;-49
2023/08/16 11:36:49;;;;;;;12.00;10.15;;;24.30;76.60;;;;;;4962754;28;20027;-55
2023/08/16 11:39:15;;;;;;;10.65;9.55;;;24.30;76.60;;;;;;4968062;28;20405;-50
2023/08/16 11:41:41;;;;;;;10.40;9.10;;;24.30;76.70;;;;;;4966159;28;20164;-55
2023/08/16 11:44:07;;;;;;;12.88;10.27;;;24.30;76.90;;;;;;4964288;28;20031;-49
2023/08/16 11:46:48;;;;;;;11.07;9.90;;;24.30;77.00;;;;;;4937732;28;20043;-50
2023/08/16 11:49:18;;;;;;;12.05;10.27;;;24.30;77.00;;;;;;4968184;28;20447;-54
2023/08/16 11:51:44;;;;;;;10.60;9.57;;;24.30;76.80;;;;;;4966583;28;20129;-49
2023/08/16 11:54:21;;;;;;;13.70;9.98;;;24.30;77.00;;;;;;4969215;28;20465;-49
2023/08/16 11:56:47;;;;;;;11.23;10.10;;;24.30;77.30;;;;;;4964470;28;20083;-54
2023/08/16 11:59:27;;;;;;;13.85;10.38;;;24.30;77.30;;;;;;4971332;28;20035;-54
2023/08/16 12:01:54;;;;;;;10.75;9.65;;;24.30;77.30;;;;;;4972167;28;20041;-56
2023/08/16 12:04:24;;;;;;;12.88;10.43;;;24.30;77.10;;;;;;4968318;28;20090;-57
2023/08/16 12:06:49;;;;;;;13.45;9.70;;;24.30;76.90;;;;;;4965750;28;20035;-50
2023/08/16 12:09:16;;;;;;;12.40;11.10;;;24.40;77.10;;;;;;4966187;28;20093;-55
2023/08/16 12:11:42;;;;;;;11.50;10.02;;;24.40;76.90;;;;;;4962710;28;20031;-55
2023/08/16 12:14:07;;;;;;;12.18;9.73;;;24.40;76.90;;;;;;4964295;28;20464;-51
2023/08/16 12:16:33;;;;;;;12.02;10.15;;;24.40;76.80;;;;;;4968813;28;20038;-51
2023/08/16 12:18:59;;;;;;;12.02;10.80;;;24.40;76.80;;;;;;4965716;28;20043;-55
2023/08/16 12:21:25;;;;;;;11.10;10.00;;;24.40;76.70;;;;;;4971648;28;20081;-52
2023/08/16 12:23:51;;;;;;;11.77;10.15;;;24.30;76.60;;;;;;4965527;28;20484;-52
2023/08/16 12:26:17;;;;;;;12.00;10.52;;;24.30;76.60;;;;;;4970899;28;20053;-50
2023/08/16 12:28:43;;;;;;;12.25;10.40;;;24.40;76.60;;;;;;4968154;28;20711;-51
2023/08/16 12:31:09;;;;;;;13.52;11.43;;;24.30;76.50;;;;;;4968398;28;20034;-53
2023/08/16 12:33:34;;;;;;;12.50;10.40;;;24.40;76.60;;;;;;4965468;28;20121;-51
2023/08/16 12:36:00;;;;;;;10.90;9.48;;;24.40;76.50;;;;;;4962742;28;20118;-55